Time;durP1;ratioP1;P1;durP2;ratioP2;P2;SDS_P1;SDS_P2;PMS_P1;PMS_P2;Temp;Humidity;BMP_temperature;BMP_pressure;BME280_temperature;BME280_humidity;BME280_pressure;Samples;Min_cycle;Max_cycle;Signal;HPM_P1;HPM_P2
2022/10/11 00:02:55;;;;;;;19.85;9.18;;;;;;;;;;6120649;23;20213;-90
2022/10/11 00:06:02;;;;;;;12.98;6.30;;;;;;;;;;6122194;23;20174;-90
2022/10/11 00:09:10;;;;;;;20.40;8.55;;;;;;;;;;6122053;23;20217;-91
2022/10/11 00:12:15;;;;;;;14.82;6.88;;;;;;;;;;6121712;23;20226;-90
2022/10/11 00:15:24;;;;;;;15.88;7.97;;;;;;;;;;6121237;23;20213;-90
2022/10/11 00:18:29;;;;;;;16.17;8.00;;;;;;;;;;6138784;23;20189;-91
2022/10/11 00:21:35;;;;;;;17.23;7.38;;;;;;;;;;6121355;23;20169;-89
2022/10/11 00:24:46;;;;;;;14.10;6.75;;;;;;;;;;6121306;23;20157;-90
2022/10/11 00:27:51;;;;;;;18.98;6.97;;;;;;;;;;6121716;23;20249;-89
2022/10/11 00:39:16;;;;;;;15.07;6.75;;;;;;;;;;6135880;23;20156;-90
2022/10/11 00:42:23;;;;;;;19.92;7.35;;;;;;;;;;6120477;23;20169;-89
2022/10/11 00:46:01;;;;;;;19.50;7.03;;;;;;;;;;6119646;23;20213;-90
2022/10/11 00:49:07;;;;;;;18.48;7.90;;;;;;;;;;6120570;23;20165;-89
2022/10/11 00:52:15;;;;;;;19.80;7.40;;;;;;;;;;6122938;23;20501;-90
2022/10/11 00:55:22;;;;;;;39.08;8.18;;;;;;;;;;6122109;23;20200;-89
2022/10/11 00:58:29;;;;;;;60.90;8.98;;;;;;;;;;6120255;23;20168;-89
2022/10/11 01:01:34;;;;;;;130.00;9.52;;;;;;;;;;6120475;23;20196;-89
2022/10/11 01:04:40;;;;;;;22.42;7.22;;;;;;;;;;6119790;23;20224;-89
2022/10/11 01:07:45;;;;;;;18.90;6.97;;;;;;;;;;6120120;23;20178;-89
2022/10/11 01:10:50;;;;;;;17.52;6.78;;;;;;;;;;6121218;23;20613;-90
2022/10/11 01:14:08;;;;;;;18.70;7.00;;;;;;;;;;6117749;23;20170;-90
2022/10/11 01:17:18;;;;;;;9.77;5.97;;;;;;;;;;6119642;23;20173;-89
2022/10/11 01:20:29;;;;;;;13.50;6.78;;;;;;;;;;6118531;23;20237;-89
2022/10/11 01:24:04;;;;;;;12.48;6.45;;;;;;;;;;6119303;23;20177;-88
2022/10/11 01:27:24;;;;;;;20.10;7.60;;;;;;;;;;6119979;23;20173;-89
2022/10/11 01:30:32;;;;;;;21.77;7.85;;;;;;;;;;6121277;23;20169;-89
2022/10/11 01:33:39;;;;;;;84.95;9.00;;;;;;;;;;6120591;23;20249;-90
2022/10/11 01:36:48;;;;;;;33.05;7.95;;;;;;;;;;6120679;23;20192;-89
2022/10/11 01:39:54;;;;;;;35.17;7.40;;;;;;;;;;6138046;23;20165;-88
2022/10/11 01:42:59;;;;;;;30.30;7.55;;;;;;;;;;6119361;23;20178;-90
2022/10/11 01:46:06;;;;;;;21.00;7.22;;;;;;;;;;6119291;23;20157;-90
2022/10/11 01:49:11;;;;;;;37.50;7.25;;;;;;;;;;6120706;23;20177;-89
2022/10/11 01:52:16;;;;;;;19.52;7.07;;;;;;;;;;6119107;23;20248;-89
2022/10/11 01:55:30;;;;;;;20.35;7.28;;;;;;;;;;6119400;23;20193;-90
2022/10/11 01:58:39;;;;;;;25.27;7.65;;;;;;;;;;6119198;23;20206;-89
2022/10/11 02:01:49;;;;;;;24.70;7.10;;;;;;;;;;6119448;23;20180;-90
2022/10/11 02:04:56;;;;;;;16.90;7.57;;;;;;;;;;6120123;23;20216;-90
2022/10/11 02:08:05;;;;;;;22.38;7.78;;;;;;;;;;6119860;23;20169;-89
2022/10/11 02:11:16;;;;;;;20.58;7.63;;;;;;;;;;6120834;23;20165;-91
2022/10/11 02:14:24;;;;;;;15.88;7.07;;;;;;;;;;6117968;23;20277;-89
2022/10/11 02:17:32;;;;;;;15.88;7.65;;;;;;;;;;6120833;23;20197;-90
2022/10/11 02:20:39;;;;;;;18.63;7.22;;;;;;;;;;6119593;23;20613;-89
2022/10/11 02:23:49;;;;;;;18.60;7.88;;;;;;;;;;6118241;23;20189;-90
2022/10/11 02:26:55;;;;;;;21.27;7.47;;;;;;;;;;6118660;23;20173;-88
2022/10/11 02:30:01;;;;;;;23.38;7.28;;;;;;;;;;6118460;23;20464;-89
2022/10/11 02:33:11;;;;;;;15.27;7.15;;;;;;;;;;6121590;23;20173;-88
2022/10/11 02:36:19;;;;;;;22.02;7.75;;;;;;;;;;6121246;23;20290;-89
2022/10/11 02:39:25;;;;;;;19.85;9.15;;;;;;;;;;6122198;23;20226;-89
2022/10/11 02:42:32;;;;;;;50.15;8.73;;;;;;;;;;6119445;23;20165;-87
2022/10/11 02:45:39;;;;;;;31.95;9.73;;;;;;;;;;6118406;23;20221;-89
2022/10/11 02:48:46;;;;;;;22.30;8.88;;;;;;;;;;6119383;23;20150;-90
2022/10/11 02:51:52;;;;;;;30.90;8.18;;;;;;;;;;6120014;23;20617;-90
2022/10/11 02:54:56;;;;;;;15.30;7.60;;;;;;;;;;6120556;23;20641;-90
2022/10/11 02:58:01;;;;;;;21.33;8.38;;;;;;;;;;6119927;23;20313;-90
2022/10/11 03:01:07;;;;;;;17.08;7.57;;;;;;;;;;6136773;23;20620;-89
2022/10/11 03:04:16;;;;;;;25.48;7.68;;;;;;;;;;6119687;23;20153;-89
2022/10/11 03:07:21;;;;;;;28.65;7.65;;;;;;;;;;6119778;23;20184;-90
2022/10/11 03:10:26;;;;;;;21.02;8.25;;;;;;;;;;6119706;23;20173;-90
2022/10/11 03:13:31;;;;;;;21.45;7.25;;;;;;;;;;6119129;23;20173;-90
2022/10/11 03:16:36;;;;;;;28.42;7.45;;;;;;;;;;6117684;23;20189;-89
2022/10/11 03:19:43;;;;;;;33.05;9.30;;;;;;;;;;6119232;23;20173;-89
2022/10/11 03:22:48;;;;;;;27.67;7.85;;;;;;;;;;6118483;23;20241;-89
2022/10/11 03:25:54;;;;;;;14.82;7.13;;;;;;;;;;6118527;23;20169;-90
2022/10/11 03:28:59;;;;;;;11.55;6.05;;;;;;;;;;6118753;23;20169;-91
2022/10/11 03:32:04;;;;;;;12.63;6.30;;;;;;;;;;6120270;23;20169;-90
2022/10/11 03:35:11;;;;;;;14.00;6.90;;;;;;;;;;6118113;23;20251;-88
2022/10/11 03:38:17;;;;;;;12.73;6.60;;;;;;;;;;6118673;23;20173;-91
2022/10/11 03:41:22;;;;;;;11.55;7.07;;;;;;;;;;6118233;23;20166;-91
2022/10/11 03:44:31;;;;;;;13.60;6.50;;;;;;;;;;6118101;23;20157;-88
2022/10/11 03:47:37;;;;;;;13.70;6.55;;;;;;;;;;6117688;23;20173;-88
2022/10/11 03:50:44;;;;;;;16.08;7.70;;;;;;;;;;6115489;23;20746;-90
2022/10/11 03:53:49;;;;;;;17.10;7.80;;;;;;;;;;6117231;23;20156;-90
2022/10/11 03:56:54;;;;;;;15.77;7.53;;;;;;;;;;6117474;23;20537;-88
2022/10/11 03:59:59;;;;;;;16.30;7.00;;;;;;;;;;6117740;23;20166;-90
2022/10/11 04:03:06;;;;;;;16.40;6.55;;;;;;;;;;6115389;23;20257;-91
2022/10/11 04:06:12;;;;;;;12.20;6.55;;;;;;;;;;6140585;23;20173;-90
2022/10/11 04:09:19;;;;;;;14.13;7.68;;;;;;;;;;6122376;23;20173;-90
2022/10/11 04:12:24;;;;;;;19.52;7.15;;;;;;;;;;6116813;23;20173;-90
2022/10/11 04:15:29;;;;;;;16.23;8.30;;;;;;;;;;6116420;23;20192;-90
2022/10/11 04:18:34;;;;;;;17.17;8.18;;;;;;;;;;6116560;23;20186;-90
2022/10/11 22:02:39;;;;;;;11.60;5.07;;;;;;;;;;6087995;22;1330018;-90
2022/10/11 22:05:44;;;;;;;15.25;5.93;;;;;;;;;;6138378;23;20213;-90
2022/10/11 22:08:50;;;;;;;21.33;6.30;;;;;;;;;;6137780;23;20165;-90
2022/10/11 22:11:55;;;;;;;17.17;6.60;;;;;;;;;;6138158;23;20169;-91
2022/10/11 22:15:00;;;;;;;17.58;6.03;;;;;;;;;;6136354;23;20538;-90
2022/10/11 22:18:07;;;;;;;15.10;6.25;;;;;;;;;;6139191;23;20216;-90
2022/10/11 22:21:13;;;;;;;17.17;6.57;;;;;;;;;;6140676;23;20200;-90
2022/10/11 22:24:18;;;;;;;16.70;6.15;;;;;;;;;;6142945;23;20173;-89
2022/10/11 22:27:23;;;;;;;15.98;6.30;;;;;;;;;;6138659;23;20170;-88
2022/10/11 22:30:29;;;;;;;17.27;6.30;;;;;;;;;;6137482;23;20593;-90
2022/10/11 22:33:36;;;;;;;21.50;6.70;;;;;;;;;;6137828;23;20173;-90
2022/10/11 22:36:41;;;;;;;16.55;6.72;;;;;;;;;;6137190;23;20253;-90
2022/10/11 22:39:46;;;;;;;19.35;6.68;;;;;;;;;;6136151;23;20173;-90
2022/10/11 22:42:51;;;;;;;13.85;6.43;;;;;;;;;;6135214;23;20201;-90
2022/10/11 22:45:56;;;;;;;15.35;6.43;;;;;;;;;;6134935;23;20217;-89
2022/10/11 22:49:03;;;;;;;23.15;7.45;;;;;;;;;;6134495;23;20169;-90
2022/10/11 22:52:08;;;;;;;19.67;6.75;;;;;;;;;;6136826;23;20177;-89
2022/10/11 22:55:13;;;;;;;20.58;6.38;;;;;;;;;;6135322;23;20175;-90
2022/10/11 22:58:18;;;;;;;16.65;6.50;;;;;;;;;;6135554;23;20225;-90
2022/10/11 23:01:23;;;;;;;20.55;6.22;;;;;;;;;;6135856;23;20280;-91
2022/10/11 23:04:29;;;;;;;20.70;5.90;;;;;;;;;;6133630;23;20174;-90
2022/10/11 23:07:34;;;;;;;17.13;5.85;;;;;;;;;;6134439;23;20151;-90
2022/10/11 23:10:39;;;;;;;15.70;5.57;;;;;;;;;;6136582;23;20185;-90
2022/10/11 23:13:44;;;;;;;11.13;5.20;;;;;;;;;;6134793;23;20177;-89
2022/10/11 23:16:51;;;;;;;14.50;5.45;;;;;;;;;;6135638;23;20305;-90
2022/10/11 23:19:57;;;;;;;16.60;5.43;;;;;;;;;;6134856;23;20169;-90
2022/10/11 23:23:03;;;;;;;21.85;6.70;;;;;;;;;;6135693;23;20201;-90
2022/10/11 23:26:09;;;;;;;16.02;5.93;;;;;;;;;;6135192;23;20197;-90
2022/10/11 23:29:13;;;;;;;20.00;5.90;;;;;;;;;;6136463;23;20240;-90
2022/10/11 23:32:19;;;;;;;13.50;6.13;;;;;;;;;;6136752;23;20174;-89
2022/10/11 23:35:25;;;;;;;14.52;5.78;;;;;;;;;;6136623;23;20245;-90
2022/10/11 23:38:31;;;;;;;11.98;6.18;;;;;;;;;;6134732;23;20169;-89
2022/10/11 23:41:36;;;;;;;15.93;6.25;;;;;;;;;;6136876;23;20196;-90
2022/10/11 23:44:41;;;;;;;17.92;6.82;;;;;;;;;;6140569;23;20239;-90
2022/10/11 23:47:46;;;;;;;18.77;7.13;;;;;;;;;;6140059;23;20236;-91
2022/10/11 23:50:53;;;;;;;23.15;7.43;;;;;;;;;;6137941;23;20189;-91
2022/10/11 23:53:58;;;;;;;18.42;7.32;;;;;;;;;;6135999;23;20173;-90
2022/10/11 23:57:03;;;;;;;19.30;7.18;;;;;;;;;;6136947;23;20189;-90
